Aripeka, Florida
Current Conditions -  °F | °C
As of 3:28 PM on Monday 22 Dec 2014 (Local Time) from KBKV Reporting Station
Scattered Clouds Scattered Clouds  
Wind Chill: 79°   Ceiling: Unl
Heat Index: 81°   Visibility: 10mi
Dew Point: 68°   Wind: 17mph
Humidity: 69%   Direction: 210°SSW
Pressure: 29.91"   Gusts: NA
Location:  28.43°N, 82.66°W
Report Text: KBKV 222028Z 21015KT 10SM SCT026 26/20 A2991 RMK AO2 T02610200
Loading
Personal Weather Stations






























Interactive Weather Map New forecast layout! Learn more

10-Day Weather Forecast

Advertisements
Track Severe Weather on mobile